sensor_id;sensor_type;location;lat;lon;timestamp;P1;P2;P0
75960;PMS7003;64644;48.914;2.254;2023-02-12T00:00:29;16.00;12.25;8.25
75960;PMS7003;64644;48.914;2.254;2023-02-12T00:02:54;17.00;14.50;8.75
75960;PMS7003;64644;48.914;2.254;2023-02-12T00:05:20;16.50;15.50;9.00
75960;PMS7003;64644;48.914;2.254;2023-02-12T00:07:45;16.50;15.75;9.00
75960;PMS7003;64644;48.914;2.254;2023-02-12T00:10:11;21.50;16.50;11.75
75960;PMS7003;64644;48.914;2.254;2023-02-12T00:12:37;19.75;16.75;9.25
75960;PMS7003;64644;48.914;2.254;2023-02-12T00:15:02;19.25;16.00;10.00
75960;PMS7003;64644;48.914;2.254;2023-02-12T00:17:29;22.00;15.75;10.25
75960;PMS7003;64644;48.914;2.254;2023-02-12T00:19:55;10.00;10.00;6.00
75960;PMS7003;64644;48.914;2.254;2023-02-12T00:22:20;16.75;15.25;9.00
75960;PMS7003;64644;48.914;2.254;2023-02-12T00:24:45;18.75;13.25;9.50
75960;PMS7003;64644;48.914;2.254;2023-02-12T00:27:11;14.00;12.25;8.00
75960;PMS7003;64644;48.914;2.254;2023-02-12T00:29:36;18.75;14.00;9.00
75960;PMS7003;64644;48.914;2.254;2023-02-12T00:32:02;17.00;15.25;9.50
75960;PMS7003;64644;48.914;2.254;2023-02-12T00:34:27;19.75;15.50;9.50
75960;PMS7003;64644;48.914;2.254;2023-02-12T00:36:53;13.25;13.25;9.00
75960;PMS7003;64644;48.914;2.254;2023-02-12T00:39:18;19.00;17.50;10.00
75960;PMS7003;64644;48.914;2.254;2023-02-12T00:41:43;12.50;12.50;9.25
75960;PMS7003;64644;48.914;2.254;2023-02-12T00:44:09;16.25;12.75;9.00
75960;PMS7003;64644;48.914;2.254;2023-02-12T00:46:34;13.50;10.50;8.75
75960;PMS7003;64644;48.914;2.254;2023-02-12T00:48:59;21.25;17.00;9.50
75960;PMS7003;64644;48.914;2.254;2023-02-12T00:51:25;12.50;10.25;8.00
75960;PMS7003;64644;48.914;2.254;2023-02-12T00:53:50;16.25;15.25;9.25
75960;PMS7003;64644;48.914;2.254;2023-02-12T00:56:16;18.00;17.25;10.00
75960;PMS7003;64644;48.914;2.254;2023-02-12T00:58:41;16.50;14.75;9.00
75960;PMS7003;64644;48.914;2.254;2023-02-12T01:01:06;17.25;15.75;9.25
75960;PMS7003;64644;48.914;2.254;2023-02-12T01:03:32;13.75;12.75;8.25
75960;PMS7003;64644;48.914;2.254;2023-02-12T01:05:58;17.25;15.25;10.00
75960;PMS7003;64644;48.914;2.254;2023-02-12T01:08:23;17.50;15.00;9.00
75960;PMS7003;64644;48.914;2.254;2023-02-12T01:10:55;19.25;17.00;12.25
75960;PMS7003;64644;48.914;2.254;2023-02-12T01:13:23;17.25;17.00;9.00
75960;PMS7003;64644;48.914;2.254;2023-02-12T01:15:59;18.25;16.25;12.00
75960;PMS7003;64644;48.914;2.254;2023-02-12T01:18:40;25.25;17.25;11.00
75960;PMS7003;64644;48.914;2.254;2023-02-12T01:21:16;22.00;16.25;12.25
75960;PMS7003;64644;48.914;2.254;2023-02-12T01:23:43;16.50;15.50;9.00
75960;PMS7003;64644;48.914;2.254;2023-02-12T01:26:10;21.25;19.75;13.25
75960;PMS7003;64644;48.914;2.254;2023-02-12T01:28:40;26.00;22.00;12.00
75960;PMS7003;64644;48.914;2.254;2023-02-12T01:31:08;21.75;16.75;10.00
75960;PMS7003;64644;48.914;2.254;2023-02-12T01:33:39;25.00;20.00;13.00
75960;PMS7003;64644;48.914;2.254;2023-02-12T01:36:05;23.00;22.25;12.50
75960;PMS7003;64644;48.914;2.254;2023-02-12T01:38:31;23.50;20.25;13.75
75960;PMS7003;64644;48.914;2.254;2023-02-12T01:44:06;25.50;19.00;13.75
75960;PMS7003;64644;48.914;2.254;2023-02-12T01:46:38;23.00;20.25;13.00
75960;PMS7003;64644;48.914;2.254;2023-02-12T01:49:05;28.00;25.25;16.00
75960;PMS7003;64644;48.914;2.254;2023-02-12T01:51:35;24.75;23.00;14.00
75960;PMS7003;64644;48.914;2.254;2023-02-12T01:54:02;23.25;19.00;13.25
75960;PMS7003;64644;48.914;2.254;2023-02-12T01:56:30;25.75;23.75;13.50
75960;PMS7003;64644;48.914;2.254;2023-02-12T01:58:56;14.00;12.25;8.75
75960;PMS7003;64644;48.914;2.254;2023-02-12T02:01:23;17.00;13.50;8.00
75960;PMS7003;64644;48.914;2.254;2023-02-12T02:03:53;17.00;12.25;9.00
75960;PMS7003;64644;48.914;2.254;2023-02-12T02:06:28;13.00;11.00;8.00
75960;PMS7003;64644;48.914;2.254;2023-02-12T02:09:00;9.75;9.50;6.50
75960;PMS7003;64644;48.914;2.254;2023-02-12T02:11:26;10.25;8.25;5.50
75960;PMS7003;64644;48.914;2.254;2023-02-12T02:14:10;7.50;6.00;4.00
75960;PMS7003;64644;48.914;2.254;2023-02-12T02:17:06;5.00;4.00;3.00
75960;PMS7003;64644;48.914;2.254;2023-02-12T02:19:49;4.75;4.75;3.50
75960;PMS7003;64644;48.914;2.254;2023-02-12T02:25:32;2.00;2.00;1.00
75960;PMS7003;64644;48.914;2.254;2023-02-12T02:28:11;3.75;2.50;1.00
75960;PMS7003;64644;48.914;2.254;2023-02-12T02:41:13;0.50;0.50;0.50
75960;PMS7003;64644;48.914;2.254;2023-02-12T02:43:46;1.00;1.00;1.00
75960;PMS7003;64644;48.914;2.254;2023-02-12T02:46:19;2.00;2.00;1.00
75960;PMS7003;64644;48.914;2.254;2023-02-12T02:48:55;3.50;1.00;1.00
75960;PMS7003;64644;48.914;2.254;2023-02-12T02:51:43;5.75;2.75;1.50
75960;PMS7003;64644;48.914;2.254;2023-02-12T02:57:23;1.00;0.75;0.00
75960;PMS7003;64644;48.914;2.254;2023-02-12T02:59:59;2.50;1.25;1.00
75960;PMS7003;64644;48.914;2.254;2023-02-12T03:02:31;0.75;0.75;0.75
75960;PMS7003;64644;48.914;2.254;2023-02-12T03:05:05;1.50;1.50;0.50
75960;PMS7003;64644;48.914;2.254;2023-02-12T03:07:45;2.00;0.00;0.00
75960;PMS7003;64644;48.914;2.254;2023-02-12T03:10:16;1.00;1.00;0.50
75960;PMS7003;64644;48.914;2.254;2023-02-12T03:13:01;1.00;1.00;1.00
75960;PMS7003;64644;48.914;2.254;2023-02-12T03:15:38;1.75;1.75;1.00
75960;PMS7003;64644;48.914;2.254;2023-02-12T03:18:18;0.00;0.00;0.00
75960;PMS7003;64644;48.914;2.254;2023-02-12T03:20:51;2.00;1.00;0.25
75960;PMS7003;64644;48.914;2.254;2023-02-12T03:23:23;0.75;0.75;0.00
75960;PMS7003;64644;48.914;2.254;2023-02-12T03:28:33;1.00;1.00;0.25
75960;PMS7003;64644;48.914;2.254;2023-02-12T03:33:30;2.00;1.00;0.00
75960;PMS7003;64644;48.914;2.254;2023-02-12T03:36:54;1.75;1.75;1.00
75960;PMS7003;64644;48.914;2.254;2023-02-12T03:39:18;2.75;1.25;1.00
75960;PMS7003;64644;48.914;2.254;2023-02-12T03:41:49;4.25;4.00;2.00
75960;PMS7003;64644;48.914;2.254;2023-02-12T03:50:12;1.75;1.75;1.00
75960;PMS7003;64644;48.914;2.254;2023-02-12T03:52:51;2.00;2.00;1.25
75960;PMS7003;64644;48.914;2.254;2023-02-12T03:55:16;4.00;4.00;2.50
75960;PMS7003;64644;48.914;2.254;2023-02-12T03:57:43;5.75;5.00;3.00
75960;PMS7003;64644;48.914;2.254;2023-02-12T04:00:18;5.50;4.75;2.00
75960;PMS7003;64644;48.914;2.254;2023-02-12T04:02:45;4.75;4.50;2.00
75960;PMS7003;64644;48.914;2.254;2023-02-12T04:07:44;4.50;4.50;3.75
75960;PMS7003;64644;48.914;2.254;2023-02-12T04:10:10;5.00;4.00;2.25
75960;PMS7003;64644;48.914;2.254;2023-02-12T04:12:38;10.75;8.00;4.50
75960;PMS7003;64644;48.914;2.254;2023-02-12T04:22:50;6.00;5.25;2.25
75960;PMS7003;64644;48.914;2.254;2023-02-12T04:25:28;8.50;6.00;3.75
75960;PMS7003;64644;48.914;2.254;2023-02-12T04:36:35;11.50;9.00;5.00
75960;PMS7003;64644;48.914;2.254;2023-02-12T04:39:09;11.50;9.25;6.00
75960;PMS7003;64644;48.914;2.254;2023-02-12T04:41:40;12.50;12.00;6.00
75960;PMS7003;64644;48.914;2.254;2023-02-12T04:44:15;9.00;9.00;6.50
75960;PMS7003;64644;48.914;2.254;2023-02-12T04:46:43;10.75;10.75;6.75
75960;PMS7003;64644;48.914;2.254;2023-02-12T04:49:11;10.00;8.00;6.00
75960;PMS7003;64644;48.914;2.254;2023-02-12T04:51:40;12.75;9.75;5.75
75960;PMS7003;64644;48.914;2.254;2023-02-12T04:54:05;14.25;11.00;8.25
75960;PMS7003;64644;48.914;2.254;2023-02-12T04:56:31;11.50;10.00;6.00
75960;PMS7003;64644;48.914;2.254;2023-02-12T04:58:56;11.25;11.25;7.75
75960;PMS7003;64644;48.914;2.254;2023-02-12T05:01:21;11.00;9.75;7.00
75960;PMS7003;64644;48.914;2.254;2023-02-12T05:03:47;13.50;13.00;9.75
75960;PMS7003;64644;48.914;2.254;2023-02-12T05:06:12;12.75;12.75;8.50
75960;PMS7003;64644;48.914;2.254;2023-02-12T05:08:38;16.50;13.50;9.00
75960;PMS7003;64644;48.914;2.254;2023-02-12T05:11:07;12.75;12.75;8.50
75960;PMS7003;64644;48.914;2.254;2023-02-12T05:13:34;13.75;12.50;8.00
75960;PMS7003;64644;48.914;2.254;2023-02-12T05:16:02;13.50;12.50;8.00
75960;PMS7003;64644;48.914;2.254;2023-02-12T05:18:30;12.50;12.50;8.00
75960;PMS7003;64644;48.914;2.254;2023-02-12T05:20:56;21.00;17.00;11.75
75960;PMS7003;64644;48.914;2.254;2023-02-12T05:23:24;15.75;15.75;9.00
75960;PMS7003;64644;48.914;2.254;2023-02-12T05:25:51;14.00;11.50;8.50
75960;PMS7003;64644;48.914;2.254;2023-02-12T05:28:17;16.50;14.00;9.00
75960;PMS7003;64644;48.914;2.254;2023-02-12T05:30:42;11.75;11.75;8.00
75960;PMS7003;64644;48.914;2.254;2023-02-12T05:33:07;17.00;13.00;8.50
75960;PMS7003;64644;48.914;2.254;2023-02-12T05:35:33;12.25;10.25;6.25
75960;PMS7003;64644;48.914;2.254;2023-02-12T05:37:59;13.00;12.25;6.00
75960;PMS7003;64644;48.914;2.254;2023-02-12T05:40:25;12.00;12.00;8.50
75960;PMS7003;64644;48.914;2.254;2023-02-12T05:42:50;14.50;11.00;7.00
75960;PMS7003;64644;48.914;2.254;2023-02-12T05:45:15;11.25;10.50;6.00
75960;PMS7003;64644;48.914;2.254;2023-02-12T05:47:41;12.50;10.00;6.00
75960;PMS7003;64644;48.914;2.254;2023-02-12T05:50:06;16.00;11.25;8.00
75960;PMS7003;64644;48.914;2.254;2023-02-12T05:52:32;12.25;8.25;5.00
75960;PMS7003;64644;48.914;2.254;2023-02-12T05:54:58;11.75;11.75;6.00
75960;PMS7003;64644;48.914;2.254;2023-02-12T05:57:23;10.75;8.50;5.00
75960;PMS7003;64644;48.914;2.254;2023-02-12T05:59:49;11.00;8.25;5.75
75960;PMS7003;64644;48.914;2.254;2023-02-12T06:02:14;9.75;9.25;7.00
75960;PMS7003;64644;48.914;2.254;2023-02-12T06:04:40;14.50;12.50;8.00
75960;PMS7003;64644;48.914;2.254;2023-02-12T06:07:05;11.25;10.75;6.25
75960;PMS7003;64644;48.914;2.254;2023-02-12T06:09:31;10.75;9.00;5.75
75960;PMS7003;64644;48.914;2.254;2023-02-12T06:11:57;11.00;9.50;6.00
75960;PMS7003;64644;48.914;2.254;2023-02-12T06:14:22;10.25;10.25;7.00
75960;PMS7003;64644;48.914;2.254;2023-02-12T06:16:49;9.00;9.00;6.00
75960;PMS7003;64644;48.914;2.254;2023-02-12T06:19:15;15.75;12.25;8.00
75960;PMS7003;64644;48.914;2.254;2023-02-12T06:21:42;12.50;9.25;5.00
75960;PMS7003;64644;48.914;2.254;2023-02-12T06:24:08;13.25;12.25;6.00
75960;PMS7003;64644;48.914;2.254;2023-02-12T06:26:36;12.25;9.25;6.00
75960;PMS7003;64644;48.914;2.254;2023-02-12T06:29:01;12.75;11.75;7.25
75960;PMS7003;64644;48.914;2.254;2023-02-12T06:31:31;10.50;9.25;6.00
75960;PMS7003;64644;48.914;2.254;2023-02-12T06:33:59;15.00;9.75;6.00
75960;PMS7003;64644;48.914;2.254;2023-02-12T06:36:27;8.50;8.50;6.00
75960;PMS7003;64644;48.914;2.254;2023-02-12T06:38:53;9.75;9.75;5.75
75960;PMS7003;64644;48.914;2.254;2023-02-12T06:41:18;8.00;8.00;4.25
75960;PMS7003;64644;48.914;2.254;2023-02-12T06:43:44;8.75;8.75;5.00
75960;PMS7003;64644;48.914;2.254;2023-02-12T06:46:13;11.00;9.25;5.00
75960;PMS7003;64644;48.914;2.254;2023-02-12T06:48:39;6.00;5.25;4.75
75960;PMS7003;64644;48.914;2.254;2023-02-12T06:53:32;8.75;8.00;5.50
75960;PMS7003;64644;48.914;2.254;2023-02-12T06:55:59;8.00;6.00;4.25
75960;PMS7003;64644;48.914;2.254;2023-02-12T06:58:29;7.50;7.50;4.25
75960;PMS7003;64644;48.914;2.254;2023-02-12T07:00:54;5.25;5.25;4.00
75960;PMS7003;64644;48.914;2.254;2023-02-12T07:03:20;8.00;8.00;5.00
75960;PMS7003;64644;48.914;2.254;2023-02-12T07:05:45;9.00;5.00;4.25
75960;PMS7003;64644;48.914;2.254;2023-02-12T07:08:12;9.00;6.50;3.25
75960;PMS7003;64644;48.914;2.254;2023-02-12T07:10:38;9.00;5.25;4.00
75960;PMS7003;64644;48.914;2.254;2023-02-12T07:13:03;6.25;6.25;5.00
75960;PMS7003;64644;48.914;2.254;2023-02-12T07:15:29;7.00;7.00;4.75
75960;PMS7003;64644;48.914;2.254;2023-02-12T07:17:54;7.00;7.00;3.50
75960;PMS7003;64644;48.914;2.254;2023-02-12T07:20:20;5.25;5.25;4.00
75960;PMS7003;64644;48.914;2.254;2023-02-12T07:22:45;12.25;8.25;5.50
75960;PMS7003;64644;48.914;2.254;2023-02-12T07:25:11;9.50;9.25;5.75
75960;PMS7003;64644;48.914;2.254;2023-02-12T07:27:36;6.00;6.00;4.00
75960;PMS7003;64644;48.914;2.254;2023-02-12T07:30:02;6.00;6.00;5.00
75960;PMS7003;64644;48.914;2.254;2023-02-12T07:32:33;9.00;8.00;5.00
75960;PMS7003;64644;48.914;2.254;2023-02-12T07:34:58;7.00;7.00;5.75
75960;PMS7003;64644;48.914;2.254;2023-02-12T07:37:24;6.00;6.00;3.25
75960;PMS7003;64644;48.914;2.254;2023-02-12T07:39:50;8.75;8.00;5.00
75960;PMS7003;64644;48.914;2.254;2023-02-12T07:42:16;10.25;8.50;5.50
75960;PMS7003;64644;48.914;2.254;2023-02-12T07:44:41;8.25;7.25;4.50
75960;PMS7003;64644;48.914;2.254;2023-02-12T07:47:07;8.00;7.25;4.25
75960;PMS7003;64644;48.914;2.254;2023-02-12T07:49:33;8.00;8.00;5.00
75960;PMS7003;64644;48.914;2.254;2023-02-12T07:51:58;10.25;8.00;5.00
75960;PMS7003;64644;48.914;2.254;2023-02-12T07:54:24;11.25;6.25;5.00
75960;PMS7003;64644;48.914;2.254;2023-02-12T07:56:49;8.00;7.50;5.00
75960;PMS7003;64644;48.914;2.254;2023-02-12T07:59:16;6.50;5.25;5.00
75960;PMS7003;64644;48.914;2.254;2023-02-12T08:01:52;7.00;5.00;4.00
75960;PMS7003;64644;48.914;2.254;2023-02-12T08:04:19;9.50;6.75;4.50
75960;PMS7003;64644;48.914;2.254;2023-02-12T08:06:48;5.75;5.75;4.00
75960;PMS7003;64644;48.914;2.254;2023-02-12T08:09:16;6.00;5.00;3.75
75960;PMS7003;64644;48.914;2.254;2023-02-12T08:11:43;10.00;8.00;5.00
75960;PMS7003;64644;48.914;2.254;2023-02-12T08:14:16;8.75;8.75;5.00
75960;PMS7003;64644;48.914;2.254;2023-02-12T08:16:44;12.00;8.00;4.75
75960;PMS7003;64644;48.914;2.254;2023-02-12T08:19:11;6.50;6.00;5.00
75960;PMS7003;64644;48.914;2.254;2023-02-12T08:21:37;12.25;8.75;5.25
75960;PMS7003;64644;48.914;2.254;2023-02-12T08:24:02;7.75;5.75;4.25
75960;PMS7003;64644;48.914;2.254;2023-02-12T08:26:29;5.25;5.25;4.00
75960;PMS7003;64644;48.914;2.254;2023-02-12T08:29:00;8.00;6.00;5.00
75960;PMS7003;64644;48.914;2.254;2023-02-12T08:31:29;3.75;3.50;2.00
75960;PMS7003;64644;48.914;2.254;2023-02-12T08:33:56;4.50;4.50;2.75
75960;PMS7003;64644;48.914;2.254;2023-02-12T08:36:25;5.25;4.75;4.00
75960;PMS7003;64644;48.914;2.254;2023-02-12T08:38:53;5.00;5.00;2.00
75960;PMS7003;64644;48.914;2.254;2023-02-12T08:41:22;8.00;6.50;5.00
75960;PMS7003;64644;48.914;2.254;2023-02-12T08:43:49;7.75;7.75;4.50
75960;PMS7003;64644;48.914;2.254;2023-02-12T08:46:21;7.25;5.75;3.25
75960;PMS7003;64644;48.914;2.254;2023-02-12T08:48:48;5.75;5.75;4.00
75960;PMS7003;64644;48.914;2.254;2023-02-12T08:51:17;5.25;5.25;4.00
75960;PMS7003;64644;48.914;2.254;2023-02-12T08:53:45;5.75;4.50;3.25
75960;PMS7003;64644;48.914;2.254;2023-02-12T08:56:13;4.50;4.00;2.00
75960;PMS7003;64644;48.914;2.254;2023-02-12T08:58:41;8.25;5.00;2.00
75960;PMS7003;64644;48.914;2.254;2023-02-12T09:01:14;4.50;4.50;2.00
75960;PMS7003;64644;48.914;2.254;2023-02-12T09:03:41;5.50;5.50;3.75
75960;PMS7003;64644;48.914;2.254;2023-02-12T09:06:07;6.00;6.00;3.00
75960;PMS7003;64644;48.914;2.254;2023-02-12T09:08:34;4.75;4.75;2.00
75960;PMS7003;64644;48.914;2.254;2023-02-12T09:11:03;1.75;1.75;1.50
75960;PMS7003;64644;48.914;2.254;2023-02-12T09:13:30;2.00;2.00;1.75
75960;PMS7003;64644;48.914;2.254;2023-02-12T09:15:55;3.25;3.25;2.00
75960;PMS7003;64644;48.914;2.254;2023-02-12T09:18:21;4.00;1.25;1.25
75960;PMS7003;64644;48.914;2.254;2023-02-12T09:20:46;6.00;6.00;4.00
75960;PMS7003;64644;48.914;2.254;2023-02-12T09:23:12;5.25;4.50;3.50
75960;PMS7003;64644;48.914;2.254;2023-02-12T09:25:41;2.50;2.50;2.00
75960;PMS7003;64644;48.914;2.254;2023-02-12T09:28:09;5.00;5.00;3.50
75960;PMS7003;64644;48.914;2.254;2023-02-12T09:30:36;5.75;3.25;3.25
75960;PMS7003;64644;48.914;2.254;2023-02-12T09:33:02;5.00;5.00;3.25
75960;PMS7003;64644;48.914;2.254;2023-02-12T09:35:28;6.00;5.25;3.50
75960;PMS7003;64644;48.914;2.254;2023-02-12T09:37:54;7.25;7.25;3.25
75960;PMS7003;64644;48.914;2.254;2023-02-12T09:40:21;5.25;3.25;2.75
75960;PMS7003;64644;48.914;2.254;2023-02-12T09:46:03;1.50;1.00;1.00
75960;PMS7003;64644;48.914;2.254;2023-02-12T09:48:55;1.25;1.25;0.25
75960;PMS7003;64644;48.914;2.254;2023-02-12T09:51:31;3.25;2.00;1.00
75960;PMS7003;64644;48.914;2.254;2023-02-12T09:54:09;2.25;2.25;2.00
75960;PMS7003;64644;48.914;2.254;2023-02-12T09:56:42;2.00;1.00;1.00
75960;PMS7003;64644;48.914;2.254;2023-02-12T09:59:16;3.00;1.00;0.00
75960;PMS7003;64644;48.914;2.254;2023-02-12T10:02:05;5.00;5.00;3.25
75960;PMS7003;64644;48.914;2.254;2023-02-12T10:04:43;4.50;2.00;1.75
75960;PMS7003;64644;48.914;2.254;2023-02-12T10:15:23;7.50;5.25;2.25
75960;PMS7003;64644;48.914;2.254;2023-02-12T10:26:34;5.00;2.25;2.00
75960;PMS7003;64644;48.914;2.254;2023-02-12T10:29:10;3.25;3.25;2.00
75960;PMS7003;64644;48.914;2.254;2023-02-12T10:31:46;5.00;5.00;3.25
75960;PMS7003;64644;48.914;2.254;2023-02-12T10:34:23;3.25;3.25;2.00
75960;PMS7003;64644;48.914;2.254;2023-02-12T10:36:51;5.50;2.00;1.75
75960;PMS7003;64644;48.914;2.254;2023-02-12T10:39:23;4.50;3.25;2.00
75960;PMS7003;64644;48.914;2.254;2023-02-12T10:44:23;4.50;3.00;2.50
75960;PMS7003;64644;48.914;2.254;2023-02-12T10:46:48;2.50;1.75;1.00
75960;PMS7003;64644;48.914;2.254;2023-02-12T10:49:15;5.00;5.00;3.00
75960;PMS7003;64644;48.914;2.254;2023-02-12T10:57:05;9.50;6.50;5.00
75960;PMS7003;64644;48.914;2.254;2023-02-12T10:59:33;6.25;3.00;2.00
75960;PMS7003;64644;48.914;2.254;2023-02-12T11:01:59;6.50;5.00;2.50
75960;PMS7003;64644;48.914;2.254;2023-02-12T11:04:25;8.00;6.25;3.00
75960;PMS7003;64644;48.914;2.254;2023-02-12T11:09:35;6.50;5.75;3.00
75960;PMS7003;64644;48.914;2.254;2023-02-12T11:14:47;6.25;6.25;4.50
75960;PMS7003;64644;48.914;2.254;2023-02-12T11:17:18;7.50;7.50;5.50
75960;PMS7003;64644;48.914;2.254;2023-02-12T11:20:00;8.50;6.25;5.00
75960;PMS7003;64644;48.914;2.254;2023-02-12T11:22:38;7.00;6.50;4.00
75960;PMS7003;64644;48.914;2.254;2023-02-12T11:25:36;6.00;5.75;5.00
75960;PMS7003;64644;48.914;2.254;2023-02-12T11:28:15;9.75;8.00;6.25
75960;PMS7003;64644;48.914;2.254;2023-02-12T11:35:49;6.50;5.50;3.00
75960;PMS7003;64644;48.914;2.254;2023-02-12T11:38:22;5.50;5.00;3.00
75960;PMS7003;64644;48.914;2.254;2023-02-12T11:40:52;7.00;6.25;5.00
75960;PMS7003;64644;48.914;2.254;2023-02-12T11:43:21;7.00;6.00;5.00
75960;PMS7003;64644;48.914;2.254;2023-02-12T11:45:48;9.00;9.00;6.00
75960;PMS7003;64644;48.914;2.254;2023-02-12T11:50:49;7.50;7.00;5.00
75960;PMS7003;64644;48.914;2.254;2023-02-12T11:53:22;10.00;9.00;5.75
75960;PMS7003;64644;48.914;2.254;2023-02-12T11:56:03;9.25;6.75;5.00
75960;PMS7003;64644;48.914;2.254;2023-02-12T11:58:30;9.25;9.25;6.00
75960;PMS7003;64644;48.914;2.254;2023-02-12T12:04:14;10.50;9.50;5.50
75960;PMS7003;64644;48.914;2.254;2023-02-12T12:06:47;5.50;5.50;5.00
75960;PMS7003;64644;48.914;2.254;2023-02-12T12:09:41;8.50;6.50;5.00
75960;PMS7003;64644;48.914;2.254;2023-02-12T12:12:14;7.50;7.00;6.00
75960;PMS7003;64644;48.914;2.254;2023-02-12T12:14:47;9.00;7.00;5.50
75960;PMS7003;64644;48.914;2.254;2023-02-12T12:17:37;10.00;8.00;5.50
75960;PMS7003;64644;48.914;2.254;2023-02-12T12:20:24;9.00;9.00;5.25
75960;PMS7003;64644;48.914;2.254;2023-02-12T12:22:53;11.50;8.50;5.75
75960;PMS7003;64644;48.914;2.254;2023-02-12T12:25:48;12.25;10.75;6.00
75960;PMS7003;64644;48.914;2.254;2023-02-12T12:31:09;11.25;9.50;6.50
75960;PMS7003;64644;48.914;2.254;2023-02-12T12:33:45;9.50;8.25;6.25
75960;PMS7003;64644;48.914;2.254;2023-02-12T12:41:46;10.00;9.00;6.25
75960;PMS7003;64644;48.914;2.254;2023-02-12T12:49:53;14.00;11.00;7.00
75960;PMS7003;64644;48.914;2.254;2023-02-12T12:52:32;12.50;11.25;9.00
75960;PMS7003;64644;48.914;2.254;2023-02-12T13:03:26;16.00;11.50;7.75
75960;PMS7003;64644;48.914;2.254;2023-02-12T13:11:54;11.00;11.00;7.50
75960;PMS7003;64644;48.914;2.254;2023-02-12T13:22:40;14.00;12.00;10.50
75960;PMS7003;64644;48.914;2.254;2023-02-12T13:25:51;15.75;12.25;10.00
75960;PMS7003;64644;48.914;2.254;2023-02-12T13:28:54;14.50;10.00;6.50
75960;PMS7003;64644;48.914;2.254;2023-02-12T13:31:19;14.00;14.00;11.00
75960;PMS7003;64644;48.914;2.254;2023-02-12T13:33:49;11.75;11.75;9.00
75960;PMS7003;64644;48.914;2.254;2023-02-12T13:36:18;11.75;11.25;7.25
75960;PMS7003;64644;48.914;2.254;2023-02-12T13:38:45;21.50;18.25;11.00
75960;PMS7003;64644;48.914;2.254;2023-02-12T13:41:16;14.75;14.75;10.50
75960;PMS7003;64644;48.914;2.254;2023-02-12T13:49:13;15.50;13.75;10.00
75960;PMS7003;64644;48.914;2.254;2023-02-12T13:52:04;19.00;15.25;11.25
75960;PMS7003;64644;48.914;2.254;2023-02-12T13:55:06;15.25;15.00;10.75
75960;PMS7003;64644;48.914;2.254;2023-02-12T13:58:09;16.00;15.75;9.50
75960;PMS7003;64644;48.914;2.254;2023-02-12T14:03:15;22.25;14.75;11.25
75960;PMS7003;64644;48.914;2.254;2023-02-12T14:05:48;16.75;13.00;10.00
75960;PMS7003;64644;48.914;2.254;2023-02-12T14:08:41;15.25;13.25;10.25
75960;PMS7003;64644;48.914;2.254;2023-02-12T14:11:13;16.50;14.75;11.00
75960;PMS7003;64644;48.914;2.254;2023-02-12T14:13:46;16.75;15.00;10.00
75960;PMS7003;64644;48.914;2.254;2023-02-12T14:18:52;18.00;15.00;10.25
75960;PMS7003;64644;48.914;2.254;2023-02-12T14:21:56;15.50;14.25;9.00
75960;PMS7003;64644;48.914;2.254;2023-02-12T14:26:59;15.00;14.00;10.75
75960;PMS7003;64644;48.914;2.254;2023-02-12T14:29:29;15.25;13.25;10.50
75960;PMS7003;64644;48.914;2.254;2023-02-12T14:31:55;19.25;18.75;12.00
75960;PMS7003;64644;48.914;2.254;2023-02-12T14:36:46;14.33;14.33;8.00
75960;PMS7003;64644;48.914;2.254;2023-02-12T14:41:48;14.00;12.00;8.25
75960;PMS7003;64644;48.914;2.254;2023-02-12T14:44:44;13.00;12.50;10.00
75960;PMS7003;64644;48.914;2.254;2023-02-12T14:50:01;11.25;11.00;8.50
75960;PMS7003;64644;48.914;2.254;2023-02-12T14:52:39;11.25;8.25;5.25
75960;PMS7003;64644;48.914;2.254;2023-02-12T14:55:23;12.75;10.75;9.00
75960;PMS7003;64644;48.914;2.254;2023-02-12T14:57:54;11.75;11.75;8.00
75960;PMS7003;64644;48.914;2.254;2023-02-12T15:00:27;11.00;11.00;7.00
75960;PMS7003;64644;48.914;2.254;2023-02-12T15:02:59;12.25;11.25;7.50
75960;PMS7003;64644;48.914;2.254;2023-02-12T15:05:32;12.25;11.25;8.50
75960;PMS7003;64644;48.914;2.254;2023-02-12T15:11:42;17.50;15.25;10.00
75960;PMS7003;64644;48.914;2.254;2023-02-12T15:22:41;15.00;15.00;9.50
75960;PMS7003;64644;48.914;2.254;2023-02-12T15:27:56;19.00;15.00;10.00
75960;PMS7003;64644;48.914;2.254;2023-02-12T15:30:25;12.75;12.75;11.00
75960;PMS7003;64644;48.914;2.254;2023-02-12T15:32:57;12.00;9.50;6.25
75960;PMS7003;64644;48.914;2.254;2023-02-12T15:35:28;17.50;17.50;11.75
75960;PMS7003;64644;48.914;2.254;2023-02-12T15:37:56;17.25;15.00;10.00
75960;PMS7003;64644;48.914;2.254;2023-02-12T15:40:26;15.00;15.00;9.50
75960;PMS7003;64644;48.914;2.254;2023-02-12T15:45:26;20.25;16.00;11.75
75960;PMS7003;64644;48.914;2.254;2023-02-12T15:47:58;19.00;15.00;11.00
75960;PMS7003;64644;48.914;2.254;2023-02-12T15:50:33;19.50;17.00;10.25
75960;PMS7003;64644;48.914;2.254;2023-02-12T15:52:59;20.75;18.25;11.75
75960;PMS7003;64644;48.914;2.254;2023-02-12T15:55:27;14.50;14.00;11.00
75960;PMS7003;64644;48.914;2.254;2023-02-12T15:57:58;22.50;18.00;10.00
75960;PMS7003;64644;48.914;2.254;2023-02-12T16:00:26;16.50;15.00;13.50
75960;PMS7003;64644;48.914;2.254;2023-02-12T16:02:54;20.75;18.25;10.75
75960;PMS7003;64644;48.914;2.254;2023-02-12T16:05:20;18.00;16.50;10.75
75960;PMS7003;64644;48.914;2.254;2023-02-12T16:07:46;16.50;15.50;10.25
75960;PMS7003;64644;48.914;2.254;2023-02-12T16:10:14;15.00;14.50;11.50
75960;PMS7003;64644;48.914;2.254;2023-02-12T16:12:41;18.00;16.00;11.75
75960;PMS7003;64644;48.914;2.254;2023-02-12T16:15:21;18.50;14.75;9.50
75960;PMS7003;64644;48.914;2.254;2023-02-12T16:17:54;17.25;15.75;11.00
75960;PMS7003;64644;48.914;2.254;2023-02-12T16:20:23;20.00;17.00;11.25
75960;PMS7003;64644;48.914;2.254;2023-02-12T16:22:53;19.50;16.25;10.50
75960;PMS7003;64644;48.914;2.254;2023-02-12T16:27:50;16.25;13.50;10.00
75960;PMS7003;64644;48.914;2.254;2023-02-12T16:30:25;15.50;15.50;10.25
75960;PMS7003;64644;48.914;2.254;2023-02-12T16:32:52;22.25;19.50;13.25
75960;PMS7003;64644;48.914;2.254;2023-02-12T16:35:23;21.75;18.00;11.25
75960;PMS7003;64644;48.914;2.254;2023-02-12T16:37:52;17.25;15.00;10.00
75960;PMS7003;64644;48.914;2.254;2023-02-12T16:40:40;21.75;18.75;13.75
75960;PMS7003;64644;48.914;2.254;2023-02-12T16:43:21;19.75;17.00;11.00
75960;PMS7003;64644;48.914;2.254;2023-02-12T16:45:48;17.75;17.75;10.50
75960;PMS7003;64644;48.914;2.254;2023-02-12T16:48:15;21.25;17.75;10.75
75960;PMS7003;64644;48.914;2.254;2023-02-12T16:50:48;19.25;18.00;11.00
75960;PMS7003;64644;48.914;2.254;2023-02-12T16:53:26;21.25;20.50;14.50
75960;PMS7003;64644;48.914;2.254;2023-02-12T16:55:56;18.25;18.25;12.00
75960;PMS7003;64644;48.914;2.254;2023-02-12T16:58:22;18.75;18.50;12.00
75960;PMS7003;64644;48.914;2.254;2023-02-12T17:00:50;18.50;16.75;10.50
75960;PMS7003;64644;48.914;2.254;2023-02-12T17:03:16;22.25;19.75;10.00
75960;PMS7003;64644;48.914;2.254;2023-02-12T17:05:42;23.50;18.75;11.00
75960;PMS7003;64644;48.914;2.254;2023-02-12T17:08:12;19.25;17.50;13.00
75960;PMS7003;64644;48.914;2.254;2023-02-12T17:10:40;24.75;21.00;13.00
75960;PMS7003;64644;48.914;2.254;2023-02-12T17:13:05;21.25;19.00;13.00
75960;PMS7003;64644;48.914;2.254;2023-02-12T17:15:36;21.50;19.75;13.00
75960;PMS7003;64644;48.914;2.254;2023-02-12T17:18:06;24.75;24.50;17.00